| time (UTC) | temp F | wind direction | speed MPH | gust MPH | rain 1hr in | rain 24hr in | rain mn in | humidity % | barometer mb |
| 20260503215003 | 90 | 35 | 3.0 | 6.0 | 0.00 | 0.00 | 0.00 | 28 | 1007.8 |
| 20260503214004 | 91 | 207 | 2.0 | 5.0 | 0.00 | 0.00 | 0.00 | 39 | 1008.1 |
| 20260503213004 | 90 | 355 | 1.0 | 5.0 | 0.00 | 0.00 | 0.00 | 36 | 1008.1 |
| 20260503212004 | 90 | 355 | 1.0 | 5.0 | 0.00 | 0.00 | 0.00 | 36 | 1008.1 |
| 20260503211003 | 89 | 144 | 1.0 | 6.0 | 0.00 | 0.00 | 0.00 | 38 | 1008.5 |
| 20260503210004 | 88 | 232 | 2.0 | 6.0 | 0.00 | 0.00 | 0.00 | 41 | 1008.5 |
| 20260503205003 | 88 | 232 | 2.0 | 6.0 | 0.00 | 0.00 | 0.00 | 41 | 1008.5 |
| 20260503204003 | 87 | 236 | 5.0 | 5.0 | 0.00 | 0.00 | 0.00 | 43 | 1008.8 |
| 20260503203009 | 87 | 236 | 5.0 | 5.0 | 0.00 | 0.00 | 0.00 | 43 | 1008.8 |
| 20260503202004 | 86 | 209 | 2.0 | 6.0 | 0.00 | 0.00 | 0.00 | 45 | 1009.1 |
| 20260503201003 | 85 | 248 | 1.0 | 7.0 | 0.00 | 0.00 | 0.00 | 46 | 1009.1 |
| 20260503200004 | 85 | 239 | 2.0 | 6.0 | 0.00 | 0.00 | 0.00 | 41 | 1009.5 |
| 20260503195003 | 85 | 239 | 2.0 | 6.0 | 0.00 | 0.00 | 0.00 | 41 | 1009.5 |
| 20260503194003 | 83 | 295 | 1.0 | 8.0 | 0.00 | 0.00 | 0.00 | 43 | 1009.5 |
| 20260503193004 | 83 | 21 | 2.0 | 4.0 | 0.00 | 0.00 | 0.00 | 44 | 1009.8 |
| 20260503192004 | 83 | 21 | 2.0 | 4.0 | 0.00 | 0.00 | 0.00 | 44 | 1009.8 |
| 20260503191004 | 82 | 229 | 0.0 | 5.0 | 0.00 | 0.00 | 0.00 | 44 | 1009.8 |
| 20260503190004 | 81 | 135 | 2.0 | 6.0 | 0.00 | 0.00 | 0.00 | 46 | 1010.2 |
| 20260503185003 | 81 | 135 | 2.0 | 6.0 | 0.00 | 0.00 | 0.00 | 46 | 1010.2 |
| 20260503184003 | 81 | 177 | 2.0 | 5.0 | 0.00 | 0.00 | 0.00 | 45 | 1010.2 |
| 20260503183003 | 79 | 234 | 2.0 | 4.0 | 0.00 | 0.00 | 0.00 | 46 | 1010.5 |
| 20260503182004 | 79 | 234 | 2.0 | 4.0 | 0.00 | 0.00 | 0.00 | 46 | 1010.5 |
| 20260503181004 | 78 | 217 | 2.0 | 5.0 | 0.00 | 0.00 | 0.00 | 47 | 1010.5 |
| 20260503180005 | 76 | 105 | 1.0 | 8.0 | 0.00 | 0.00 | 0.00 | 50 | 1010.5 |
| 20260503175003 | 76 | 105 | 1.0 | 8.0 | 0.00 | 0.00 | 0.00 | 50 | 1010.5 |
| 20260503174003 | 76 | 198 | 3.0 | 8.0 | 0.00 | 0.00 | 0.00 | 50 | 1010.5 |
| 20260503173003 | 74 | 63 | 1.0 | 7.0 | 0.00 | 0.00 | 0.00 | 57 | 1010.8 |
| 20260503172003 | 74 | 63 | 1.0 | 7.0 | 0.00 | 0.00 | 0.00 | 57 | 1010.8 |
| 20260503171003 | 72 | 169 | 2.0 | 6.0 | 0.00 | 0.00 | 0.00 | 61 | 1010.8 |
| 20260503151003 | 54 | 42 | 0.0 | 2.0 | 0.00 | 0.00 | 0.00 | 91 | 1011.5 |
| 20260503131003 | 51 | 48 | 0.0 | 1.0 | 0.00 | 0.00 | 0.00 | 91 | 1011.2 |
| 20260503081003 | 56 | 38 | 1.0 | 2.0 | 0.00 | 0.00 | 0.00 | 87 | 1011.5 |
| 20260503072004 | 57 | 38 | 0.0 | 0.0 | 0.00 | 0.00 | 0.00 | 86 | 1011.9 |
| 20260503071003 | 58 | 50 | 0.0 | 0.0 | 0.00 | 0.00 | 0.00 | 85 | 1011.9 |
| 20260503055003 | 60 | 23 | 0.0 | 2.0 | 0.00 | 0.00 | 0.00 | 82 | 1011.9 |
| 20260503054004 | 61 | 34 | 0.0 | 1.0 | 0.00 | 0.00 | 0.00 | 81 | 1011.9 |
| 20260503053003 | 61 | 34 | 0.0 | 1.0 | 0.00 | 0.00 | 0.00 | 80 | 1012.2 |
| 20260503052003 | 61 | 34 | 0.0 | 1.0 | 0.00 | 0.00 | 0.00 | 80 | 1012.2 |
| 20260503051003 | 62 | 49 | 1.0 | 2.0 | 0.00 | 0.00 | 0.00 | 80 | 1011.9 |
| 20260503050005 | 62 | 34 | 0.0 | 1.0 | 0.00 | 0.00 | 0.00 | 79 | 1011.9 |
| 20260503045003 | 62 | 34 | 0.0 | 1.0 | 0.00 | 0.00 | 0.00 | 79 | 1011.9 |
| 20260503044004 | 63 | 44 | 0.0 | 1.0 | 0.00 | 0.00 | 0.00 | 79 | 1011.5 |
| 20260503043004 | 63 | 41 | 1.0 | 2.0 | 0.00 | 0.00 | 0.00 | 78 | 1011.5 |
| 20260503042003 | 63 | 41 | 1.0 | 2.0 | 0.00 | 0.00 | 0.00 | 78 | 1011.5 |
| 20260503041003 | 63 | 75 | 0.0 | 1.0 | 0.00 | 0.00 | 0.00 | 78 | 1011.2 |
| 20260503040005 | 63 | 75 | 0.0 | 1.0 | 0.00 | 0.00 | 0.00 | 78 | 1011.2 |
| 20260503035004 | 64 | 75 | 0.0 | 2.0 | 0.00 | 0.00 | 0.00 | 76 | 1010.8 |
| 20260503034004 | 66 | 80 | 1.0 | 2.0 | 0.00 | 0.00 | 0.00 | 75 | 1010.5 |
| 20260503033004 | 67 | 98 | 1.0 | 2.0 | 0.00 | 0.00 | 0.00 | 74 | 1009.8 |
| 20260503032004 | 67 | 98 | 1.0 | 2.0 | 0.00 | 0.00 | 0.00 | 74 | 1009.8 |
| 20260503031003 | 68 | 228 | 0.0 | 3.0 | 0.00 | 0.00 | 0.00 | 71 | 1009.8 |
| 20260503030004 | 70 | 219 | 0.0 | 3.0 | 0.00 | 0.00 | 0.00 | 67 | 1009.8 |
| 20260503025003 | 70 | 219 | 0.0 | 3.0 | 0.00 | 0.00 | 0.00 | 67 | 1009.8 |
| 20260503024003 | 71 | 223 | 0.0 | 2.0 | 0.00 | 0.00 | 0.00 | 67 | 1009.8 |
| 20260503023004 | 72 | 231 | 2.0 | 5.0 | 0.00 | 0.00 | 0.00 | 64 | 1009.8 |
| 20260503022003 | 72 | 231 | 2.0 | 5.0 | 0.00 | 0.00 | 0.00 | 64 | 1009.8 |
| 20260503021005 | 73 | 211 | 1.0 | 6.0 | 0.00 | 0.00 | 0.00 | 63 | 1009.8 |
| 20260503020004 | 75 | 227 | 3.0 | 7.0 | 0.00 | 0.00 | 0.00 | 58 | 1009.8 |
| 20260503015003 | 75 | 227 | 3.0 | 7.0 | 0.00 | 0.00 | 0.00 | 58 | 1009.8 |
| 20260503014003 | 75 | 227 | 2.0 | 6.0 | 0.00 | 0.00 | 0.00 | 60 | 1009.8 |
| 20260503013004 | 76 | 213 | 1.0 | 7.0 | 0.00 | 0.00 | 0.00 | 57 | 1009.8 |
| 20260503012003 | 76 | 213 | 1.0 | 7.0 | 0.00 | 0.00 | 0.00 | 57 | 1009.8 |
| 20260503011004 | 77 | 223 | 3.0 | 9.0 | 0.00 | 0.00 | 0.00 | 55 | 1009.8 |
| 20260503010004 | 79 | 233 | 3.0 | 7.0 | 0.00 | 0.00 | 0.00 | 51 | 1009.8 |
| 20260503005003 | 79 | 233 | 3.0 | 7.0 | 0.00 | 0.00 | 0.00 | 51 | 1009.8 |
| 20260503004003 | 79 | 209 | 1.0 | 8.0 | 0.00 | 0.00 | 0.00 | 52 | 1009.8 |
| 20260503003004 | 78 | 213 | 2.0 | 4.0 | 0.00 | 0.00 | 0.00 | 58 | 1009.8 |
| 20260503002003 | 78 | 213 | 2.0 | 4.0 | 0.00 | 0.00 | 0.00 | 58 | 1009.8 |
| 20260503001004 | 76 | 244 | 1.0 | 4.0 | 0.00 | 0.00 | 0.00 | 59 | 1009.8 |
| 20260503000004 | 76 | 180 | 1.0 | 5.0 | 0.00 | 0.00 | 0.00 | 59 | 1010.2 |
| 20260502235003 | 76 | 180 | 1.0 | 5.0 | 0.00 | 0.00 | 0.00 | 59 | 1010.2 |
| 20260502234003 | 75 | 233 | 2.0 | 8.0 | 0.00 | 0.00 | 0.00 | 61 | 1010.2 |
| 20260502233004 | 75 | 219 | 5.0 | 7.0 | 0.00 | 0.00 | 0.00 | 62 | 1010.5 |
| 20260502232004 | 75 | 219 | 5.0 | 7.0 | 0.00 | 0.00 | 0.00 | 62 | 1010.5 |
| 20260502231004 | 75 | 227 | 2.0 | 7.0 | 0.00 | 0.00 | 0.00 | 62 | 1010.8 |
| 20260502230004 | 75 | 194 | 3.0 | 7.0 | 0.00 | 0.00 | 0.00 | 60 | 1011.2 |
| 20260502225003 | 75 | 194 | 3.0 | 7.0 | 0.00 | 0.00 | 0.00 | 60 | 1011.2 |
| 20260502224003 | 72 | 234 | 5.0 | 5.0 | 0.00 | 0.00 | 0.00 | 65 | 1011.2 |
| 20260502223004 | 70 | 209 | 1.0 | 7.0 | 0.00 | 0.00 | 0.00 | 67 | 1011.5 |
| 20260502222003 | 70 | 209 | 1.0 | 7.0 | 0.00 | 0.00 | 0.00 | 67 | 1011.5 |
| 20260502221003 | 70 | 232 | 3.0 | 8.0 | 0.00 | 0.00 | 0.00 | 66 | 1011.9 |
| 20260502220004 | 72 | 190 | 0.0 | 6.0 | 0.00 | 0.00 | 0.00 | 63 | 1011.9 |